Time;durP1;ratioP1;P1;durP2;ratioP2;P2;SDS_P1;SDS_P2;PMS_P1;PMS_P2;Temp;Humidity;BMP_temperature;BMP_pressure;BME280_temperature;BME280_humidity;BME280_pressure;Samples;Min_cycle;Max_cycle;Signal;HPM_P1;HPM_P2
2022/11/10 00:00:18;;;;;;;13.65;3.55;;;;;;;;;;4971256;28;20066;-78
2022/11/10 00:02:43;;;;;;;13.48;4.57;;;;;;;;;;4972417;28;20581;-78
2022/11/10 00:05:09;;;;;;;8.48;3.40;;;;;;;;;;4972985;28;20039;-78
2022/11/10 00:07:35;;;;;;;11.88;3.78;;;;;;;9.18;100.00;67788.19;4973986;28;20494;-78
2022/11/10 00:10:00;;;;;;;10.02;3.97;;;;;;;9.16;100.00;67791.22;4975670;28;20046;-78
2022/11/10 00:12:25;;;;;;;13.73;3.97;;;;;;;;;;4975394;28;20038;-78
2022/11/10 00:17:35;;;;;;;15.80;4.50;;;;;;;9.14;100.00;67789.53;4971554;28;20057;-78
2022/11/10 00:20:01;;;;;;;13.43;4.40;;;;;;;;;;4974993;28;20043;-78
2022/11/10 00:22:26;;;;;;;14.93;4.38;;;;;;;9.09;100.00;67783.88;4971931;28;20047;-78
2022/11/10 00:24:52;;;;;;;15.32;4.82;;;;;;;9.10;100.00;67785.00;4973256;28;20053;-78
2022/11/10 00:27:17;;;;;;;19.23;4.40;;;;;;;;;;4971857;28;20043;-78
2022/11/10 00:29:43;;;;;;;17.20;4.95;;;;;;;9.03;100.00;67777.63;4973055;28;20065;-78
2022/11/10 00:32:09;;;;;;;16.25;3.78;;;;;;;9.00;100.00;67774.22;4975953;28;20062;-78
2022/11/10 00:34:35;;;;;;;15.40;5.03;;;;;;;8.99;100.00;67772.53;4972324;28;20038;-78
2022/11/10 00:37:00;;;;;;;13.07;4.60;;;;;;;8.97;100.00;67765.50;4974229;28;20046;-79
2022/11/10 00:39:26;;;;;;;17.58;5.38;;;;;;;8.97;100.00;67770.81;4973582;28;20039;-78
2022/11/10 00:41:51;;;;;;;15.77;5.50;;;;;;;;;;4975374;28;20042;-79
2022/11/10 00:44:16;;;;;;;11.43;5.95;;;;;;;8.98;100.00;67771.41;4972454;28;20042;-79
2022/11/10 00:46:42;;;;;;;15.90;5.97;;;;;;;;;;4974774;28;20051;-79
2022/11/10 00:49:07;;;;;;;16.45;5.22;;;;;;;8.95;100.00;67773.88;4976676;28;20453;-78
2022/11/10 00:51:32;;;;;;;14.43;5.97;;;;;;;8.95;100.00;67768.56;4971194;28;20035;-79
2022/11/10 00:53:58;;;;;;;14.93;5.90;;;;;;;8.94;100.00;67767.41;4972775;28;20137;-79
2022/11/10 00:56:24;;;;;;;16.88;6.15;;;;;;;8.92;100.00;67767.25;4972177;28;20039;-79
2022/11/10 00:58:49;;;;;;;12.27;4.47;;;;;;;8.90;100.00;67762.34;4971706;28;20051;-79
2022/11/10 01:01:16;;;;;;;13.93;5.00;;;;;;;8.89;100.00;67767.09;4970842;28;20062;-79
2022/11/10 01:03:41;;;;;;;16.25;5.57;;;;;;;8.87;100.00;67758.94;4972912;28;20387;-79
2022/11/10 01:06:10;;;;;;;12.65;5.30;;;;;;;8.87;100.00;67759.50;4972540;28;20062;-79
2022/11/10 01:08:37;;;;;;;16.13;6.15;;;;;;;8.86;100.00;67757.78;4972518;28;20054;-79
2022/11/10 01:11:07;;;;;;;13.70;5.15;;;;;;;8.88;100.00;67754.75;4974905;28;20067;-79
2022/11/10 01:13:33;;;;;;;16.75;5.22;;;;;;;8.82;100.00;67754.38;4970043;28;20061;-79
2022/11/10 01:16:07;;;;;;;12.43;4.60;;;;;;;8.84;100.00;67755.53;4974630;28;20062;-79
2022/11/10 01:18:33;;;;;;;16.17;5.22;;;;;;;8.82;100.00;67754.38;4991846;28;20038;-79
2022/11/10 01:20:59;;;;;;;16.60;5.80;;;;;;;8.81;100.00;67753.25;4977243;28;20050;-78
2022/11/10 01:23:24;;;;;;;12.70;5.07;;;;;;;;;;4971698;28;20047;-78
2022/11/10 01:25:49;;;;;;;12.88;5.40;;;;;;;8.77;100.00;67748.72;4972409;28;20514;-78
2022/11/10 01:28:15;;;;;;;13.70;6.20;;;;;;;8.77;100.00;67743.41;4972164;28;20034;-78
2022/11/10 01:30:40;;;;;;;16.52;5.70;;;;;;;;;;4978217;28;20043;-79
2022/11/10 01:33:06;;;;;;;15.90;6.53;;;;;;;8.75;100.00;67746.47;4993281;28;20074;-78
2022/11/10 01:35:32;;;;;;;16.50;5.20;;;;;;;8.76;100.00;67747.59;4975369;28;20566;-78
2022/11/10 01:37:58;;;;;;;16.27;5.38;;;;;;;8.76;100.00;67747.03;4975920;28;20035;-78
2022/11/10 01:40:23;;;;;;;12.45;5.45;;;;;;;;;;4975550;28;20084;-78
2022/11/10 01:42:51;;;;;;;18.58;6.18;;;;;;;8.73;100.00;67743.63;4975858;28;20062;-78
2022/11/10 01:45:23;;;;;;;13.10;5.20;;;;;;;;;;4974858;28;20043;-78
2022/11/10 01:47:53;;;;;;;13.20;5.43;;;;;;;8.74;100.00;67747.41;4969518;28;20851;-78
2022/11/10 01:50:20;;;;;;;15.00;4.90;;;;;;;8.71;100.00;67741.34;4968997;28;20050;-78
2022/11/10 01:52:48;;;;;;;13.73;5.30;;;;;;;8.71;100.00;67741.34;4974122;28;20039;-79
2022/11/10 01:55:14;;;;;;;13.95;5.65;;;;;;;8.68;100.00;67738.53;4973542;28;20050;-78
2022/11/10 01:57:39;;;;;;;19.67;5.25;;;;;;;;;;4974414;28;20039;-78
2022/11/10 02:00:06;;;;;;;14.73;5.20;;;;;;;8.67;100.00;67731.53;4974526;28;20047;-78
2022/11/10 02:02:41;;;;;;;17.73;5.90;;;;;;;8.67;100.00;67736.84;4972101;28;20757;-78
2022/11/10 02:05:07;;;;;;;17.13;4.65;;;;;;;8.65;100.00;67734.56;4971387;28;20050;-79
2022/11/10 02:07:33;;;;;;;17.15;5.70;;;;;;;8.63;100.00;67732.28;4969813;28;20194;-78
2022/11/10 02:10:01;;;;;;;13.82;5.40;;;;;;;8.64;100.00;67734.00;4973321;28;20042;-78
2022/11/10 02:12:36;;;;;;;12.55;5.55;;;;;;;;;;4975303;28;20031;-78
2022/11/10 02:15:04;;;;;;;14.63;5.32;;;;;;;8.65;100.00;67735.13;4975252;28;20491;-78
2022/11/10 02:17:30;;;;;;;21.27;6.65;;;;;;;8.64;100.00;67733.44;4980160;28;20050;-78
2022/11/10 02:20:05;;;;;;;13.38;5.82;;;;;;;8.66;100.00;67735.69;4977405;28;20042;-78
2022/11/10 02:22:31;;;;;;;15.65;6.43;;;;;;;8.63;100.00;67732.88;4970702;28;20046;-78
2022/11/10 02:24:57;;;;;;;23.00;7.18;;;;;;;8.61;100.00;67725.28;4976134;28;20049;-78
2022/11/10 02:27:22;;;;;;;18.77;6.28;;;;;;;;;;4974471;28;20043;-78
2022/11/10 02:29:48;;;;;;;17.10;6.47;;;;;;;8.61;100.00;67725.28;4974646;28;20134;-78
2022/11/10 02:32:13;;;;;;;14.38;5.32;;;;;;;8.62;100.00;67731.72;4971890;28;20035;-78
2022/11/10 02:34:39;;;;;;;13.15;6.80;;;;;;;;;;4973585;28;20125;-78
2022/11/10 02:37:04;;;;;;;15.52;5.90;;;;;;;8.63;100.00;67732.28;4976078;28;20039;-78
2022/11/10 02:39:29;;;;;;;18.92;6.72;;;;;;;8.61;100.00;67730.03;4975090;28;20053;-78
2022/11/10 02:41:55;;;;;;;19.38;6.80;;;;;;;;;;4974933;28;20071;-78
2022/11/10 02:44:20;;;;;;;20.83;6.35;;;;;;;8.63;100.00;67727.56;4974129;28;20049;-78
2022/11/10 02:46:46;;;;;;;17.58;6.72;;;;;;;8.61;100.00;67730.59;4974388;28;20057;-78
2022/11/10 02:49:11;;;;;;;12.02;6.32;;;;;;;8.63;100.00;67727.56;4976127;28;20038;-78
2022/11/10 02:51:37;;;;;;;17.67;7.50;;;;;;;8.64;100.00;67733.44;4974857;28;20076;-78
2022/11/10 02:54:02;;;;;;;16.75;5.85;;;;;;;8.62;100.00;67731.72;4973689;28;20458;-78
2022/11/10 02:56:27;;;;;;;16.00;5.95;;;;;;;;;;5001895;23;20050;-83
2022/11/10 02:58:53;;;;;;;15.55;6.53;;;;;;;8.62;100.00;67731.72;4981077;28;20039;-84
2022/11/10 03:01:18;;;;;;;18.77;6.20;;;;;;;8.61;100.00;67730.59;4979430;28;20053;-83
2022/11/10 03:03:43;;;;;;;12.80;6.30;;;;;;;8.62;100.00;67734.38;4981532;28;20070;-83
2022/11/10 03:06:09;;;;;;;16.13;7.55;;;;;;;8.65;100.00;67734.56;4975000;28;20097;-82
2022/11/10 03:08:34;;;;;;;25.77;8.13;;;;;;;8.66;100.00;67736.28;4971191;28;20042;-83
2022/11/10 03:10:59;;;;;;;20.73;6.97;;;;;;;8.67;100.00;67737.41;4971919;28;20049;-83
2022/11/10 03:13:25;;;;;;;20.25;7.68;;;;;;;8.66;100.00;67735.69;4967740;28;20093;-83
2022/11/10 03:15:50;;;;;;;21.17;7.70;;;;;;;8.66;100.00;67738.94;4969331;28;20081;-83
2022/11/10 03:18:16;;;;;;;18.60;6.65;;;;;;;8.67;100.00;67732.09;4965187;28;20032;-84
2022/11/10 03:20:42;;;;;;;19.90;8.15;;;;;;;;;;4966391;28;20031;-82
2022/11/10 03:23:07;;;;;;;19.33;6.53;;;;;;;8.69;100.00;67734.38;4983171;28;20062;-87
2022/11/10 03:25:33;;;;;;;15.60;6.18;;;;;;;8.68;100.00;67737.97;4994487;28;20107;-87
2022/11/10 03:27:59;;;;;;;20.98;7.35;;;;;;;8.70;100.00;67740.81;4986113;28;20094;-87
2022/11/10 03:30:25;;;;;;;18.60;6.95;;;;;;;;;;4988190;28;20030;-85
2022/11/10 03:32:50;;;;;;;19.27;6.90;;;;;;;;;;4986986;28;20046;-83
2022/11/10 03:35:15;;;;;;;18.80;6.50;;;;;;;8.71;100.00;67744.56;4982633;28;20038;-83
2022/11/10 03:37:41;;;;;;;16.75;5.72;;;;;;;8.75;100.00;67751.78;4986961;28;20046;-85
2022/11/10 03:40:07;;;;;;;17.10;7.30;;;;;;;8.76;100.00;67742.28;4984910;28;20042;-83
2022/11/10 03:42:33;;;;;;;21.00;7.53;;;;;;;8.76;100.00;67747.03;4983317;28;20050;-84
2022/11/10 03:44:58;;;;;;;20.40;6.75;;;;;;;;;;4983043;28;20046;-83
2022/11/10 03:47:23;;;;;;;17.75;6.65;;;;;;;8.75;100.00;67746.47;4982953;28;20093;-86
2022/11/10 03:49:48;;;;;;;16.67;6.43;;;;;;;;;;4982145;28;20066;-83
2022/11/10 03:52:14;;;;;;;13.80;6.15;;;;;;;8.76;100.00;67747.03;4981237;28;20115;-83
2022/11/10 03:54:40;;;;;;;22.13;7.47;;;;;;;8.75;100.00;67745.91;4980481;28;20051;-83
2022/11/10 03:57:05;;;;;;;21.13;6.85;;;;;;;;;;4981720;28;20035;-83
2022/11/10 03:59:30;;;;;;;17.05;5.85;;;;;;;8.73;100.00;67743.63;4979465;28;20126;-84
2022/11/10 04:01:56;;;;;;;15.38;5.72;;;;;;;8.74;100.00;67744.75;4979637;28;20050;-84
2022/11/10 04:09:49;;;;;;;20.70;5.95;;;;;;;;;;4970798;28;20049;-83
2022/11/10 04:17:47;;;;;;;22.65;6.47;;;;;;;8.70;100.00;67740.22;4984179;28;20054;-83
2022/11/10 04:20:13;;;;;;;16.08;5.38;;;;;;;8.71;100.00;67741.34;4983700;28;20486;-83
2022/11/10 04:25:22;;;;;;;23.63;7.82;;;;;;;8.72;100.00;67745.72;4983287;28;20041;-84
2022/11/10 04:27:47;;;;;;;17.98;6.70;;;;;;;8.73;100.00;67744.19;4981754;28;20062;-84
2022/11/10 04:30:12;;;;;;;16.33;6.35;;;;;;;;;;4981112;28;20429;-84
2022/11/10 04:32:38;;;;;;;22.67;6.82;;;;;;;;;;4980526;28;21125;-84
2022/11/10 04:35:03;;;;;;;21.08;6.93;;;;;;;8.76;100.00;67749.69;4979902;28;20039;-83
2022/11/10 04:37:29;;;;;;;13.43;5.63;;;;;;;8.75;100.00;67749.13;4980142;28;20259;-83
2022/11/10 04:39:54;;;;;;;19.67;6.32;;;;;;;8.77;100.00;67748.16;4982397;28;20038;-83
2022/11/10 04:42:19;;;;;;;21.85;5.72;;;;;;;8.76;100.00;67747.59;4979586;28;20039;-83
2022/11/10 04:44:45;;;;;;;14.93;4.78;;;;;;;8.79;100.00;67745.13;4976322;28;20131;-84
2022/11/10 04:47:10;;;;;;;17.17;6.28;;;;;;;8.79;100.00;67750.44;4982404;28;20133;-84
2022/11/10 04:49:35;;;;;;;16.85;5.55;;;;;;;8.78;100.00;67744.00;4983415;28;20047;-84
2022/11/10 04:52:01;;;;;;;19.77;6.40;;;;;;;8.79;100.00;67745.69;4984330;28;20106;-83
2022/11/10 04:54:26;;;;;;;12.90;5.28;;;;;;;8.77;100.00;67748.16;4983569;28;20350;-85
2022/11/10 04:56:51;;;;;;;16.83;5.50;;;;;;;8.77;100.00;67748.16;4984544;28;20461;-86
2022/11/10 04:59:17;;;;;;;20.80;5.93;;;;;;;;;;4983955;28;20027;-83
2022/11/10 05:01:42;;;;;;;16.02;5.18;;;;;;;8.78;100.00;67749.31;4983955;28;20043;-84
2022/11/10 05:04:07;;;;;;;15.05;4.93;;;;;;;8.79;100.00;67745.13;4985805;28;20049;-84
2022/11/10 05:06:33;;;;;;;20.83;6.05;;;;;;;8.78;100.00;67749.31;4987807;28;20035;-83
2022/11/10 05:08:58;;;;;;;12.35;5.30;;;;;;;8.75;100.00;67746.47;4988429;28;20054;-83
2022/11/10 05:11:23;;;;;;;17.00;4.78;;;;;;;8.76;100.00;67747.59;4979597;28;20043;-84
2022/11/10 05:13:49;;;;;;;13.60;4.90;;;;;;;8.77;100.00;67742.84;4987139;28;20081;-83
2022/11/10 05:16:15;;;;;;;12.85;4.45;;;;;;;;;;4985848;28;20065;-83
2022/11/10 05:18:40;;;;;;;18.65;5.32;;;;;;;8.78;100.00;67749.88;4986321;28;20102;-83
2022/11/10 05:21:06;;;;;;;15.68;4.78;;;;;;;8.76;100.00;67747.59;4986083;28;20066;-84
2022/11/10 05:23:37;;;;;;;20.40;6.07;;;;;;;8.78;100.00;67749.31;5003246;28;20058;-83
2022/11/10 05:26:12;;;;;;;15.95;4.95;;;;;;;;;;5012739;28;20062;-84
2022/11/10 05:28:40;;;;;;;14.60;4.22;;;;;;;8.76;100.00;67747.59;4993805;28;20457;-84
2022/11/10 05:31:06;;;;;;;18.13;5.47;;;;;;;8.74;100.00;67745.31;4985689;28;20049;-83
2022/11/10 05:33:32;;;;;;;17.77;5.50;;;;;;;8.76;100.00;67747.03;4987765;28;20074;-83
2022/11/10 05:35:58;;;;;;;17.77;5.38;;;;;;;8.78;100.00;67744.00;4980449;28;20054;-85
2022/11/10 05:38:24;;;;;;;18.73;6.07;;;;;;;8.79;100.00;67750.44;4981875;28;20027;-83
2022/11/10 05:40:49;;;;;;;16.00;5.22;;;;;;;8.79;100.00;67751.00;4985047;28;20118;-84
2022/11/10 05:43:14;;;;;;;14.65;5.03;;;;;;;;;;4987021;28;20038;-84
2022/11/10 05:45:40;;;;;;;15.10;5.43;;;;;;;8.78;100.00;67744.56;4985453;28;20047;-83
2022/11/10 05:48:05;;;;;;;17.80;6.70;;;;;;;8.77;100.00;67742.84;4987440;28;20043;-83
2022/11/10 05:50:31;;;;;;;15.63;5.38;;;;;;;;;;4986400;28;20074;-83
2022/11/10 05:52:56;;;;;;;22.02;6.03;;;;;;;8.75;100.00;67749.13;4986399;28;20617;-83
2022/11/10 05:55:23;;;;;;;17.60;5.55;;;;;;;;;;4983341;28;20039;-83
2022/11/10 05:57:50;;;;;;;19.80;6.13;;;;;;;8.72;100.00;67743.06;4983822;28;20051;-84
2022/11/10 06:00:18;;;;;;;16.45;5.43;;;;;;;8.72;100.00;67743.06;4983761;28;20039;-84
2022/11/10 06:02:43;;;;;;;20.85;5.75;;;;;;;8.73;100.00;67743.63;4976719;28;20050;-83
2022/11/10 06:05:10;;;;;;;19.08;5.53;;;;;;;8.70;100.00;67740.22;4976907;28;20038;-83
2022/11/10 06:07:37;;;;;;;21.85;5.70;;;;;;;8.71;100.00;67741.94;4975421;28;20050;-83
2022/11/10 06:10:03;;;;;;;18.05;5.22;;;;;;;8.69;100.00;67739.09;4977649;28;20066;-83
2022/11/10 06:12:29;;;;;;;17.23;5.25;;;;;;;8.68;100.00;67738.53;4979575;28;20035;-84
2022/11/10 06:14:56;;;;;;;20.67;5.93;;;;;;;8.71;100.00;67736.06;4979055;28;20055;-84
2022/11/10 06:17:22;;;;;;;22.33;5.45;;;;;;;8.69;100.00;67739.66;4975370;28;20047;-85
2022/11/10 06:19:47;;;;;;;22.10;5.07;;;;;;;8.69;100.00;67742.31;4981111;28;20656;-83
2022/11/10 06:22:12;;;;;;;15.55;3.97;;;;;;;8.68;100.00;67740.63;4980151;28;20497;-84
2022/11/10 06:24:38;;;;;;;17.90;6.45;;;;;;;8.68;100.00;67738.53;4978810;28;20518;-84
2022/11/10 06:27:03;;;;;;;13.23;4.60;;;;;;;;;;4977398;28;20442;-85
2022/11/10 06:29:28;;;;;;;19.02;5.45;;;;;;;8.67;100.00;67736.84;4981498;28;20490;-86
2022/11/10 06:31:53;;;;;;;18.30;6.45;;;;;;;;;;4977658;28;20078;-84
2022/11/10 06:34:18;;;;;;;21.27;7.05;;;;;;;;;;4975402;28;20134;-85
2022/11/10 06:36:44;;;;;;;17.92;5.35;;;;;;;;;;4976827;28;20046;-83
2022/11/10 06:39:09;;;;;;;23.17;6.73;;;;;;;8.66;100.00;67735.69;4974939;28;20051;-84
2022/11/10 06:41:34;;;;;;;18.55;6.40;;;;;;;8.64;100.00;67734.00;4976119;28;20274;-84
2022/11/10 06:44:00;;;;;;;23.83;6.63;;;;;;;8.65;100.00;67729.25;4977303;28;20053;-85
2022/11/10 06:46:25;;;;;;;24.77;5.80;;;;;;;;;;4973131;28;20053;-86
2022/11/10 06:48:50;;;;;;;15.02;5.13;;;;;;;8.61;100.00;67725.28;4975532;28;20051;-85
2022/11/10 06:51:16;;;;;;;19.67;7.43;;;;;;;8.62;100.00;67726.41;4976570;28;20480;-85
2022/11/10 06:53:42;;;;;;;18.40;5.72;;;;;;;8.59;100.00;67728.34;4975259;28;20042;-85
2022/11/10 06:56:07;;;;;;;23.65;6.97;;;;;;;8.58;100.00;67727.22;4976254;28;20045;-85
2022/11/10 06:58:32;;;;;;;17.38;6.25;;;;;;;8.56;100.00;67724.94;4972467;28;20035;-84
2022/11/10 07:00:59;;;;;;;24.70;6.57;;;;;;;;;;4975972;28;20050;-86
2022/11/10 07:03:24;;;;;;;20.40;6.97;;;;;;;;;;4988579;28;20066;-85
2022/11/10 07:05:49;;;;;;;22.20;6.70;;;;;;;;;;4966525;28;20043;-85
2022/11/10 07:08:15;;;;;;;23.30;6.97;;;;;;;;;;4977194;28;20102;-85
2022/11/10 07:10:49;;;;;;;20.92;5.65;;;;;;;8.49;100.00;67711.72;4972347;28;20070;-86
2022/11/10 07:13:15;;;;;;;20.77;6.75;;;;;;;8.48;100.00;67711.13;4975463;28;20405;-85
2022/11/10 07:15:40;;;;;;;20.77;5.90;;;;;;;8.49;100.00;67719.66;4981908;28;20047;-86
2022/11/10 07:18:06;;;;;;;21.63;6.13;;;;;;;;;;4975831;28;20495;-85
2022/11/10 07:20:31;;;;;;;19.80;6.40;;;;;;;8.49;100.00;67719.66;4974713;28;20560;-85
2022/11/10 07:22:59;;;;;;;22.17;7.57;;;;;;;8.52;100.00;67720.41;4975885;28;20070;-85
2022/11/10 07:25:24;;;;;;;19.77;6.47;;;;;;;8.51;100.00;67719.25;4979262;28;20062;-85
2022/11/10 07:27:54;;;;;;;20.50;5.93;;;;;;;;;;4977393;28;20047;-86
2022/11/10 07:30:19;;;;;;;22.83;4.97;;;;;;;;;;4975396;28;20071;-85
2022/11/10 07:32:44;;;;;;;21.15;5.82;;;;;;;8.55;100.00;67718.50;4974535;28;20734;-86
2022/11/10 07:35:10;;;;;;;18.55;5.47;;;;;;;8.57;100.00;67726.06;4974343;28;20096;-85
2022/11/10 07:37:35;;;;;;;22.08;5.57;;;;;;;;;;4961038;28;20043;-85
2022/11/10 07:40:00;;;;;;;19.02;4.55;;;;;;;8.59;100.00;67728.34;4955476;28;20063;-88
2022/11/10 07:42:26;;;;;;;22.88;5.93;;;;;;;8.61;100.00;67733.25;4966470;28;20066;-85
2022/11/10 07:44:51;;;;;;;16.17;4.95;;;;;;;8.63;100.00;67732.88;4974727;28;20570;-87
2022/11/10 07:47:16;;;;;;;14.80;4.97;;;;;;;8.65;100.00;67735.13;4973445;28;20035;-85
2022/11/10 07:49:42;;;;;;;22.20;5.90;;;;;;;8.68;100.00;67738.53;4974021;28;20085;-86
2022/11/10 07:52:07;;;;;;;20.52;4.93;;;;;;;8.72;100.00;67745.72;4962418;28;20030;-85
2022/11/10 07:54:32;;;;;;;17.52;4.78;;;;;;;8.71;100.00;67736.63;4969299;28;20105;-85
2022/11/10 07:56:58;;;;;;;18.15;5.05;;;;;;;8.76;100.00;67742.28;4975350;28;20137;-85
2022/11/10 07:59:23;;;;;;;23.15;5.20;;;;;;;;;;4975738;28;20046;-85
2022/11/10 08:01:48;;;;;;;25.77;5.83;;;;;;;8.84;100.00;67756.09;4974400;28;20070;-87
2022/11/10 08:04:14;;;;;;;17.17;4.43;;;;;;;8.87;100.00;67754.19;4974989;28;20293;-85
2022/11/10 08:06:39;;;;;;;18.80;4.78;;;;;;;8.89;100.00;67763.84;4973448;28;20043;-86
2022/11/10 08:09:04;;;;;;;14.82;5.35;;;;;;;8.95;100.00;67768.00;4990294;28;20413;-85
2022/11/10 08:11:30;;;;;;;18.52;6.20;;;;;;;9.00;100.00;67768.91;4973883;28;20054;-85
2022/11/10 08:13:55;;;;;;;15.38;4.72;;;;;;;;;;4971833;28;20038;-85
2022/11/10 08:16:20;;;;;;;15.05;4.57;;;;;;;;;;4970681;28;20031;-84
2022/11/10 08:18:45;;;;;;;25.25;4.35;;;;;;;9.12;100.00;67781.97;4972429;28;20399;-85
2022/11/10 08:21:11;;;;;;;19.80;5.35;;;;;;;9.19;100.00;67794.63;4971370;28;20450;-85
2022/11/10 08:23:36;;;;;;;16.00;5.18;;;;;;;9.21;100.00;67797.47;4970599;28;20046;-85
2022/11/10 08:26:02;;;;;;;21.08;4.60;;;;;;;9.26;100.00;67803.13;4970764;28;20060;-86
2022/11/10 08:28:28;;;;;;;11.38;3.63;;;;;;;9.32;100.00;67808.78;4971906;28;20045;-85
2022/11/10 08:30:54;;;;;;;17.27;4.50;;;;;;;9.38;100.00;67810.88;4982777;28;20050;-86
2022/11/10 08:33:20;;;;;;;17.85;4.47;;;;;;;9.46;100.00;67824.66;4985688;28;20106;-85
2022/11/10 08:35:49;;;;;;;20.23;5.28;;;;;;;9.50;100.00;67829.22;4968886;28;20050;-85
2022/11/10 08:38:18;;;;;;;13.13;3.60;;;;;;;9.54;100.00;67836.41;4970190;28;20494;-85
2022/11/10 08:40:44;;;;;;;16.45;4.18;;;;;;;9.59;100.00;67838.84;4970610;28;20717;-85
2022/11/10 08:43:11;;;;;;;13.60;4.63;;;;;;;9.65;100.00;67846.22;4970173;28;20143;-85
2022/11/10 08:45:38;;;;;;;14.43;5.07;;;;;;;9.74;100.00;67855.28;4971079;28;20035;-85
2022/11/10 08:48:05;;;;;;;14.52;4.28;;;;;;;;;;4970570;28;20066;-85
2022/11/10 08:50:31;;;;;;;19.13;4.50;;;;;;;9.77;100.00;67853.38;4971137;28;20066;-85
2022/11/10 08:53:00;;;;;;;16.50;4.75;;;;;;;9.82;100.00;67859.63;4970997;28;20145;-85
2022/11/10 08:55:25;;;;;;;19.17;5.10;;;;;;;;;;4994151;23;20513;-80
2022/11/10 08:57:50;;;;;;;16.67;4.82;;;;;;;9.94;100.00;67877.97;4959667;28;20055;-79
2022/11/10 09:00:17;;;;;;;16.60;5.35;;;;;;;10.01;100.00;67885.34;4970812;28;20058;-79
2022/11/10 09:02:42;;;;;;;14.13;4.32;;;;;;;10.05;100.00;67890.44;4970940;28;20395;-79
2022/11/10 09:05:08;;;;;;;15.85;4.70;;;;;;;10.11;100.00;67891.94;4970633;28;20035;-79
2022/11/10 09:07:45;;;;;;;20.40;5.90;;;;;;;10.22;100.00;67908.59;4969300;28;20058;-79
2022/11/10 09:10:12;;;;;;;16.25;3.83;;;;;;;;;;4970927;28;20039;-80
2022/11/10 09:12:37;;;;;;;17.25;3.67;;;;;;;;;;4970417;28;20043;-79
2022/11/10 09:15:02;;;;;;;15.70;4.68;;;;;;;;;;4970782;28;20042;-80
2022/11/10 09:17:28;;;;;;;19.15;4.38;;;;;;;10.37;100.00;67925.63;4970517;28;20054;-79
2022/11/10 09:19:53;;;;;;;15.82;4.10;;;;;;;;;;4971473;28;20058;-79
2022/11/10 09:22:18;;;;;;;11.98;4.00;;;;;;;;;;4969986;28;20130;-79
2022/11/10 09:24:43;;;;;;;13.82;4.05;;;;;;;10.46;100.00;67938.50;4970370;28;20421;-79
2022/11/10 09:27:10;;;;;;;17.27;4.30;;;;;;;10.51;100.00;67936.19;4970300;28;20045;-79
2022/11/10 09:29:35;;;;;;;16.42;4.40;;;;;;;10.61;100.00;67952.84;4968726;28;20042;-79
2022/11/10 09:32:00;;;;;;;15.88;4.38;;;;;;;10.62;100.00;67953.44;4970276;28;20102;-79
2022/11/10 09:34:26;;;;;;;16.90;3.42;;;;;;;10.69;100.00;67960.81;4969023;28;20046;-79
2022/11/10 09:36:51;;;;;;;14.90;4.25;;;;;;;;;;4970580;28;20043;-79
2022/11/10 09:39:17;;;;;;;14.05;3.80;;;;;;;10.82;100.00;67978.81;4968494;28;20414;-79
2022/11/10 09:41:43;;;;;;;16.45;3.28;;;;;;;10.88;100.00;67977.06;4964736;28;20580;-79
2022/11/10 09:44:08;;;;;;;13.15;3.70;;;;;;;;;;4968947;28;20054;-79
2022/11/10 09:46:39;;;;;;;13.77;3.60;;;;;;;;;;4960836;28;20039;-79
2022/11/10 09:49:22;;;;;;;11.93;3.03;;;;;;;;;;4968138;28;20585;-79
2022/11/10 09:51:49;;;;;;;15.68;3.35;;;;;;;11.03;100.00;67998.84;4973803;28;20047;-79
2022/11/10 09:54:21;;;;;;;14.00;3.90;;;;;;;;;;4972506;28;20050;-79
2022/11/10 09:56:46;;;;;;;18.20;3.67;;;;;;;11.20;100.00;68017.56;4972505;28;20042;-79
2022/11/10 09:59:23;;;;;;;16.98;4.35;;;;;;;11.25;100.00;68017.94;4973714;28;20122;-79
2022/11/10 10:01:58;;;;;;;14.65;4.18;;;;;;;;;;4971663;28;20053;-79
2022/11/10 10:04:23;;;;;;;12.00;4.30;;;;;;;;;;4967927;28;20190;-79
2022/11/10 10:07:06;;;;;;;13.33;3.77;;;;;;;11.40;100.00;68040.28;4972311;28;20760;-79
2022/11/10 10:09:35;;;;;;;14.80;4.53;;;;;;;;;;4972000;28;20385;-79
2022/11/10 10:12:22;;;;;;;17.00;3.60;;;;;;;11.53;100.00;68055.03;4972596;28;20034;-79
2022/11/10 10:15:05;;;;;;;14.82;3.38;;;;;;;11.57;100.00;68053.13;4987578;28;20039;-79
2022/11/10 10:17:44;;;;;;;10.55;3.33;;;;;;;11.66;100.00;68063.34;4972302;28;20054;-79
2022/11/10 10:20:53;;;;;;;15.80;4.18;;;;;;;11.72;100.00;68076.06;4972597;28;20058;-79
2022/11/10 10:23:24;;;;;;;;;;;;;;;11.79;100.00;68078.09;4971274;28;20053;-79
2022/11/10 10:25:52;;;;;;;13.35;3.67;;;;;;;11.80;100.00;68084.03;4972241;28;19965;-79
2022/11/10 10:28:17;;;;;;;15.25;3.67;;;;;;;11.87;100.00;68087.22;4973408;28;20049;-79
2022/11/10 10:30:42;;;;;;;15.75;4.72;;;;;;;;;;4973819;28;20047;-79
2022/11/10 10:33:14;;;;;;;15.45;3.97;;;;;;;12.17;100.00;68125.50;4974152;28;20073;-79
2022/11/10 10:35:41;;;;;;;13.55;3.70;;;;;;;12.17;100.00;68120.75;4972738;28;20558;-79
2022/11/10 10:38:27;;;;;;;16.80;3.97;;;;;;;12.18;100.00;68121.88;4973908;28;20049;-79
2022/11/10 10:40:53;;;;;;;14.15;3.70;;;;;;;;;;4971757;28;20046;-79
2022/11/10 10:43:19;;;;;;;15.25;3.55;;;;;;;;;;4973812;28;20074;-79
2022/11/10 10:46:02;;;;;;;16.60;3.50;;;;;;;12.34;99.71;68144.25;4970773;28;20046;-79
2022/11/10 10:48:29;;;;;;;15.57;3.10;;;;;;;12.42;100.00;68148.00;4974667;28;20042;-80
2022/11/10 10:50:54;;;;;;;16.55;4.07;;;;;;;12.53;100.00;68157.28;4971345;28;20061;-78
2022/11/10 10:53:21;;;;;;;11.73;3.40;;;;;;;;;;4971671;28;20042;-78
2022/11/10 10:55:49;;;;;;;18.35;4.35;;;;;;;;;;4970003;28;20416;-78
2022/11/10 10:58:20;;;;;;;13.23;3.35;;;;;;;;;;4971333;28;20455;-79
2022/11/10 11:00:48;;;;;;;12.75;3.13;;;;;;;12.68;98.74;68182.31;4983453;28;20051;-78
2022/11/10 11:03:42;;;;;;;13.75;3.00;;;;;;;12.76;98.12;68190.84;4970779;28;20628;-78
2022/11/10 11:06:14;;;;;;;15.32;3.33;;;;;;;12.82;97.95;68197.69;4966963;28;20049;-78
2022/11/10 11:09:18;;;;;;;14.77;3.53;;;;;;;12.91;97.54;68199.31;4966827;28;20050;-78
2022/11/10 11:11:59;;;;;;;11.38;3.47;;;;;;;12.88;97.09;68199.16;4937527;28;20436;-78
2022/11/10 11:14:27;;;;;;;11.10;2.90;;;;;;;12.95;96.77;68206.56;4962630;28;20043;-78
2022/11/10 11:17:12;;;;;;;14.48;3.60;;;;;;;13.03;96.95;68216.22;4964696;28;20516;-79
2022/11/10 11:19:38;;;;;;;17.02;3.60;;;;;;;13.11;96.09;68222.06;4961139;28;20055;-79
2022/11/10 11:22:18;;;;;;;10.68;2.63;;;;;;;13.14;95.35;68232.91;4963279;28;20050;-79
2022/11/10 11:24:49;;;;;;;9.13;2.90;;;;;;;13.19;94.97;68239.19;4958446;28;20561;-79
2022/11/10 11:27:21;;;;;;;12.70;2.83;;;;;;;;;;4963901;28;20544;-79
2022/11/10 11:29:56;;;;;;;17.23;2.90;;;;;;;13.26;95.12;68241.25;4959394;28;20125;-79
2022/11/10 11:32:59;;;;;;;11.48;2.97;;;;;;;13.36;94.28;68252.06;4956058;28;20042;-79
2022/11/10 11:35:43;;;;;;;13.13;3.08;;;;;;;;;;4923441;28;20650;-79
2022/11/10 11:38:19;;;;;;;14.90;3.75;;;;;;;13.51;94.65;68277.13;4971759;28;20035;-79
2022/11/10 11:40:50;;;;;;;15.23;3.75;;;;;;;;;;4964478;28;20098;-78
2022/11/10 11:43:52;;;;;;;15.20;3.38;;;;;;;13.66;92.51;68286.16;4957992;28;20047;-79
2022/11/10 11:46:24;;;;;;;12.45;2.90;;;;;;;13.66;92.33;68286.16;4966000;28;20457;-78
2022/11/10 11:48:58;;;;;;;8.20;2.53;;;;;;;13.79;91.98;68299.84;4958189;28;20058;-78
2022/11/10 11:52:04;;;;;;;11.40;2.85;;;;;;;13.75;91.43;68295.84;4959436;28;20046;-80
2022/11/10 11:54:51;;;;;;;10.18;2.95;;;;;;;13.73;90.74;68290.91;4947955;28;20052;-80
2022/11/10 11:57:17;;;;;;;11.77;2.90;;;;;;;;;;4954802;28;20046;-79
2022/11/10 12:00:07;;;;;;;10.10;3.30;;;;;;;13.87;91.41;68308.94;4960021;28;20070;-80
2022/11/10 12:02:35;;;;;;;9.18;2.13;;;;;;;13.91;90.64;68314.03;4957840;28;20883;-80
2022/11/10 12:05:33;;;;;;;16.58;2.47;;;;;;;13.87;90.94;68308.94;4962572;28;20041;-78
2022/11/10 12:08:05;;;;;;;10.18;2.60;;;;;;;;;;4986853;28;20035;-79
2022/11/10 12:10:48;;;;;;;14.25;2.78;;;;;;;13.84;88.91;68305.50;4957836;28;20051;-80
2022/11/10 12:13:34;;;;;;;11.93;2.38;;;;;;;13.87;89.73;68314.28;4959151;28;20576;-79
2022/11/10 12:16:16;;;;;;;10.02;1.90;;;;;;;13.97;89.95;68325.66;4969094;28;20043;-79
2022/11/10 12:19:04;;;;;;;10.73;2.33;;;;;;;;;;4958549;28;20390;-79
2022/11/10 12:21:49;;;;;;;13.15;3.17;;;;;;;14.08;89.05;68329.59;4957635;28;20058;-78
2022/11/10 12:25:04;;;;;;;11.10;2.13;;;;;;;14.20;88.40;68345.91;4966057;28;20117;-78